createdAt,value
2023-07-03T00:02:24.884Z,10.52
2023-07-03T00:06:46.868Z,10.35
2023-07-03T00:11:08.825Z,11.15
2023-07-03T00:15:31.109Z,10.40
2023-07-03T00:19:53.161Z,10.73
2023-07-03T00:24:15.300Z,10.82
2023-07-03T00:28:37.148Z,11.05
2023-07-03T00:33:00.196Z,12.15
2023-07-03T00:37:22.596Z,11.30
2023-07-03T00:41:44.973Z,10.00
2023-07-03T00:46:09.746Z,11.35
2023-07-03T00:50:33.406Z,10.43
2023-07-03T00:54:55.980Z,9.68
2023-07-03T00:59:18.794Z,10.07
2023-07-03T01:03:49.076Z,10.00
2023-07-03T01:08:13.114Z,10.10
2023-07-03T01:12:39.586Z,10.93
2023-07-03T01:17:02.504Z,10.90
2023-07-03T01:21:33.868Z,10.98
2023-07-03T01:25:57.888Z,10.60
2023-07-03T01:30:22.133Z,9.68
2023-07-03T01:34:46.954Z,10.38
2023-07-03T01:39:09.510Z,10.70
2023-07-03T01:43:31.929Z,10.63
2023-07-03T01:47:53.907Z,10.73
2023-07-03T01:52:33.151Z,10.02
2023-07-03T01:56:58.574Z,10.15
2023-07-03T02:01:43.062Z,10.85
2023-07-03T02:06:17.039Z,9.60
2023-07-03T02:10:39.808Z,11.20
2023-07-03T02:15:04.679Z,10.07
2023-07-03T02:19:29.604Z,11.23
2023-07-03T02:23:51.497Z,12.32
2023-07-03T02:28:14.175Z,10.80
2023-07-03T02:32:38.172Z,10.68
2023-07-03T02:37:00.516Z,11.45
2023-07-03T02:41:24.205Z,11.00
2023-07-03T02:45:46.301Z,11.63
2023-07-03T02:50:09.322Z,12.05
2023-07-03T02:54:33.990Z,10.82
2023-07-03T02:58:57.090Z,11.20
2023-07-03T03:03:24.881Z,11.18
2023-07-03T03:07:46.996Z,11.18
2023-07-03T03:12:10.771Z,11.50
2023-07-03T03:16:32.565Z,10.32
2023-07-03T03:20:54.712Z,11.05
2023-07-03T03:25:16.891Z,11.95
2023-07-03T03:29:42.148Z,11.68
2023-07-03T03:34:04.656Z,10.77
2023-07-03T03:38:26.730Z,11.93
2023-07-03T03:42:48.898Z,11.57
2023-07-03T03:47:12.206Z,12.02
2023-07-03T03:51:34.510Z,11.73
2023-07-03T03:55:57.432Z,12.82
2023-07-03T04:00:21.438Z,13.70
2023-07-03T04:04:43.729Z,12.05
2023-07-03T04:09:06.509Z,13.73
2023-07-03T04:13:28.424Z,12.73
2023-07-03T04:17:50.698Z,12.82
2023-07-03T04:22:12.450Z,13.25
2023-07-03T04:26:34.545Z,12.98
2023-07-03T04:30:56.560Z,11.20
2023-07-03T04:35:18.797Z,11.93
2023-07-03T04:39:40.501Z,12.57
2023-07-03T04:44:02.417Z,12.40
2023-07-03T04:48:24.273Z,12.68
2023-07-03T04:52:47.694Z,12.55
2023-07-03T04:57:09.511Z,11.65
2023-07-03T05:01:31.769Z,11.90
2023-07-03T05:05:53.723Z,12.63
2023-07-03T05:10:18.571Z,13.63
2023-07-03T05:14:40.544Z,12.70
2023-07-03T05:19:02.477Z,11.70
2023-07-03T05:23:24.463Z,11.50
2023-07-03T05:27:48.119Z,11.00
2023-07-03T05:32:10.179Z,11.85
2023-07-03T05:36:32.333Z,11.90
2023-07-03T05:40:55.829Z,11.82
2023-07-03T05:45:17.634Z,10.43
2023-07-03T05:49:40.029Z,11.13
2023-07-03T05:54:02.157Z,10.65
2023-07-03T05:58:25.104Z,9.40
2023-07-03T06:02:49.157Z,9.60
2023-07-03T06:07:11.721Z,9.32
2023-07-03T06:11:33.206Z,9.73
2023-07-03T06:15:55.447Z,9.80
2023-07-03T06:20:17.429Z,9.32
2023-07-03T06:24:39.469Z,9.85
2023-07-03T06:29:05.097Z,9.57
2023-07-03T06:33:26.730Z,9.02
2023-07-03T06:37:48.838Z,9.88
2023-07-03T06:42:11.334Z,9.70
2023-07-03T06:46:37.920Z,9.35
2023-07-03T06:51:08.824Z,9.27
2023-07-03T06:55:30.750Z,9.50
2023-07-03T06:59:52.891Z,9.60
2023-07-03T07:04:16.309Z,8.57
2023-07-03T07:08:38.341Z,8.30
2023-07-03T07:13:00.350Z,8.48
2023-07-03T07:17:23.769Z,8.60
2023-07-03T07:21:47.756Z,8.10
2023-07-03T07:26:09.953Z,7.93
2023-07-03T07:30:31.888Z,6.50
2023-07-03T07:34:53.612Z,6.72
2023-07-03T07:39:15.872Z,6.45
2023-07-03T07:43:38.013Z,6.80
2023-07-03T07:48:00.875Z,6.22
2023-07-03T07:52:25.112Z,6.50
2023-07-03T07:56:46.770Z,6.63
2023-07-03T08:01:11.928Z,6.72
2023-07-03T08:05:34.023Z,5.97
2023-07-03T08:09:55.850Z,6.35
2023-07-03T08:14:17.782Z,6.45
2023-07-03T08:18:39.803Z,6.22
2023-07-03T08:23:01.722Z,6.30
2023-07-03T08:27:23.855Z,6.15
2023-07-03T08:31:46.101Z,6.60
2023-07-03T08:40:33.038Z,5.70
2023-07-03T08:44:58.024Z,6.30
2023-07-03T08:49:24.465Z,5.60
2023-07-03T08:53:53.639Z,5.50
2023-07-03T08:58:15.579Z,6.45
2023-07-03T09:02:41.002Z,5.57
2023-07-03T09:07:19.962Z,7.30
2023-07-03T09:11:49.721Z,6.32
2023-07-03T09:16:23.573Z,6.05
2023-07-03T09:20:45.748Z,5.55
2023-07-03T09:25:19.112Z,7.13
2023-07-03T09:29:42.485Z,6.20
2023-07-03T09:34:04.681Z,6.50
2023-07-03T09:38:27.642Z,6.25
2023-07-03T09:42:50.132Z,5.68
2023-07-03T09:47:26.028Z,6.10
2023-07-03T09:51:53.047Z,5.65
2023-07-03T09:56:21.982Z,5.40
2023-07-03T10:00:50.582Z,5.38
2023-07-03T10:14:23.046Z,5.35
2023-07-03T10:18:49.892Z,5.78
2023-07-03T10:23:19.295Z,5.45
2023-07-03T10:27:42.232Z,6.10
2023-07-03T10:32:14.568Z,5.30
2023-07-03T10:36:37.496Z,5.68
2023-07-03T10:41:08.401Z,5.47
2023-07-03T10:45:36.431Z,5.75
2023-07-03T10:49:58.449Z,6.25
2023-07-03T10:54:33.241Z,6.28
2023-07-03T10:59:16.992Z,5.78
2023-07-03T11:04:05.946Z,5.82
2023-07-03T11:08:51.042Z,6.07
2023-07-03T11:13:42.808Z,5.72
2023-07-03T11:23:12.604Z,5.93
2023-07-03T11:32:10.921Z,6.18
2023-07-03T11:45:59.360Z,6.15
2023-07-03T11:50:35.567Z,5.70
2023-07-03T11:55:35.796Z,5.18
2023-07-03T12:00:20.309Z,5.68
2023-07-03T12:04:49.815Z,5.45
2023-07-03T12:09:32.802Z,5.28
2023-07-03T12:13:56.337Z,5.78
2023-07-03T12:18:18.462Z,8.50
2023-07-03T12:22:50.276Z,5.35
2023-07-03T12:27:12.463Z,5.57
2023-07-03T12:31:34.487Z,6.38
2023-07-03T12:35:56.975Z,14.35
2023-07-03T12:40:21.340Z,4.93
2023-07-03T12:44:43.333Z,5.57
2023-07-03T12:49:18.602Z,5.00
2023-07-03T12:53:43.619Z,5.22
2023-07-03T12:58:07.045Z,5.78
2023-07-03T13:02:31.156Z,6.00
2023-07-03T13:06:53.739Z,5.18
2023-07-03T13:11:15.718Z,5.63
2023-07-03T13:15:42.023Z,5.75
2023-07-03T13:20:21.728Z,5.53
2023-07-03T13:24:50.325Z,4.97
2023-07-03T13:29:12.417Z,4.60
2023-07-03T13:33:37.728Z,4.63
2023-07-03T13:38:20.514Z,4.30
2023-07-03T13:42:42.706Z,4.20
2023-07-03T13:47:05.067Z,4.13
2023-07-03T13:51:26.770Z,4.20
2023-07-03T13:55:50.054Z,3.72
2023-07-03T14:00:12.863Z,4.07
2023-07-03T14:04:34.740Z,4.40
2023-07-03T14:08:58.340Z,4.65
2023-07-03T14:13:20.240Z,4.78
2023-07-03T14:17:42.177Z,3.58
2023-07-03T14:22:04.088Z,3.70
2023-07-03T14:26:26.175Z,3.53
2023-07-03T14:30:48.784Z,4.25
2023-07-03T14:35:11.491Z,3.65
2023-07-03T14:39:33.419Z,3.75
2023-07-03T14:43:55.497Z,3.53
2023-07-03T14:48:17.358Z,3.08
2023-07-03T14:52:45.341Z,3.28
2023-07-03T14:57:07.494Z,2.72
2023-07-03T15:01:30.301Z,3.13
2023-07-03T15:05:52.923Z,3.08
2023-07-03T15:10:16.549Z,3.53
2023-07-03T15:14:40.231Z,2.60
2023-07-03T15:19:06.885Z,3.35
2023-07-03T15:23:28.895Z,3.53
2023-07-03T15:27:50.784Z,3.08
2023-07-03T15:32:12.765Z,3.80
2023-07-03T15:36:35.098Z,3.53
2023-07-03T15:40:59.474Z,3.50
2023-07-03T15:45:23.477Z,2.83
2023-07-03T15:49:47.371Z,3.38
2023-07-03T15:54:09.436Z,3.33
2023-07-03T15:58:34.663Z,3.05
2023-07-03T16:02:56.283Z,3.40
2023-07-03T16:07:18.334Z,3.05
2023-07-03T16:11:40.291Z,3.30
2023-07-03T16:16:07.057Z,3.55
2023-07-03T16:20:31.450Z,3.20
2023-07-03T16:24:53.504Z,2.83
2023-07-03T16:29:17.416Z,2.83
2023-07-03T16:33:45.444Z,3.85
2023-07-03T16:38:07.363Z,3.88
2023-07-03T16:42:29.278Z,3.15
2023-07-03T16:46:51.404Z,4.28
2023-07-03T16:51:13.785Z,3.25
2023-07-03T16:55:35.550Z,3.00
2023-07-03T16:59:59.488Z,3.40
2023-07-03T17:04:21.681Z,3.20
2023-07-03T17:08:43.431Z,3.10
2023-07-03T17:13:07.235Z,4.53
2023-07-03T17:17:29.149Z,4.32
2023-07-03T17:21:51.139Z,3.00
2023-07-03T17:26:13.859Z,3.75
2023-07-03T17:30:36.571Z,3.10
2023-07-03T17:34:58.647Z,3.22
2023-07-03T17:39:20.588Z,3.58
2023-07-03T17:43:42.551Z,2.88
2023-07-03T17:48:05.186Z,3.88
2023-07-03T17:52:27.472Z,3.20
2023-07-03T17:56:49.419Z,3.80
2023-07-03T18:01:12.888Z,2.85
2023-07-03T18:05:36.287Z,3.63
2023-07-03T18:09:58.248Z,2.97
2023-07-03T18:14:20.331Z,4.00
2023-07-03T18:18:42.070Z,3.70
2023-07-03T18:23:04.240Z,3.97
2023-07-03T18:27:33.905Z,3.73
2023-07-03T18:31:55.850Z,3.40
2023-07-03T18:36:17.623Z,3.83
2023-07-03T18:40:39.765Z,2.95
2023-07-03T18:45:01.900Z,3.30
2023-07-03T18:49:23.864Z,3.47
2023-07-03T18:53:46.324Z,3.10
2023-07-03T18:58:08.603Z,3.35
2023-07-03T19:02:31.036Z,3.40
2023-07-03T19:06:54.114Z,4.18
2023-07-03T19:11:16.339Z,3.30
2023-07-03T19:15:38.224Z,3.58
2023-07-03T19:20:00.689Z,3.10
2023-07-03T19:24:22.713Z,3.72
2023-07-03T19:28:55.356Z,4.95
2023-07-03T19:33:18.371Z,3.53
2023-07-03T19:37:41.829Z,3.70
2023-07-03T19:42:07.272Z,4.40
2023-07-03T19:46:29.611Z,3.42
2023-07-03T19:50:51.865Z,3.53
2023-07-03T19:55:13.794Z,4.32
2023-07-03T19:59:36.360Z,4.05
2023-07-03T20:04:00.990Z,4.13
2023-07-03T20:08:24.978Z,4.20
2023-07-03T20:12:51.963Z,4.07
2023-07-03T20:17:13.793Z,3.85
2023-07-03T20:21:35.816Z,3.83
2023-07-03T20:25:59.049Z,3.80
2023-07-03T20:30:21.112Z,4.38
2023-07-03T20:34:43.261Z,3.58
2023-07-03T20:39:06.084Z,3.95
2023-07-03T20:43:28.979Z,4.00
2023-07-03T20:47:51.829Z,4.22
2023-07-03T20:52:15.717Z,4.22
2023-07-03T20:56:40.151Z,4.30
2023-07-03T21:01:26.868Z,4.38
2023-07-03T21:05:48.663Z,4.43
2023-07-03T21:10:11.607Z,4.30
2023-07-03T21:14:33.460Z,4.43
2023-07-03T21:18:55.610Z,4.47
2023-07-03T21:23:17.517Z,4.80
2023-07-03T21:27:39.433Z,4.07
2023-07-03T21:32:01.519Z,4.07
2023-07-03T21:36:26.258Z,4.45
2023-07-03T21:40:55.975Z,3.70
2023-07-03T21:45:18.169Z,3.92
2023-07-03T21:49:40.169Z,4.22
2023-07-03T21:54:02.053Z,4.18
2023-07-03T21:58:23.912Z,3.90
2023-07-03T22:02:45.837Z,3.60
2023-07-03T22:07:07.817Z,3.78
2023-07-03T22:11:30.572Z,4.20
2023-07-03T22:15:52.546Z,4.03
2023-07-03T22:20:14.705Z,3.60
2023-07-03T22:24:36.707Z,3.88
2023-07-03T22:28:58.901Z,4.68
2023-07-03T22:33:21.107Z,4.43
2023-07-03T22:37:43.108Z,3.63
2023-07-03T22:42:05.714Z,3.45
2023-07-03T22:46:29.114Z,3.80
2023-07-03T22:50:55.188Z,4.45
2023-07-03T22:55:18.763Z,3.63
2023-07-03T22:59:40.956Z,3.70
2023-07-03T23:04:11.056Z,4.03
2023-07-03T23:08:38.474Z,3.80
2023-07-03T23:13:00.101Z,3.67
2023-07-03T23:17:30.955Z,3.63
2023-07-03T23:21:52.793Z,3.88
2023-07-03T23:26:18.749Z,3.25
2023-07-03T23:30:41.095Z,3.58
2023-07-03T23:35:02.700Z,3.60
2023-07-03T23:39:24.654Z,4.32
2023-07-03T23:43:47.624Z,3.70
2023-07-03T23:48:12.093Z,3.50
2023-07-03T23:52:33.820Z,3.30
2023-07-03T23:56:55.676Z,2.88
